createdAt,value
2017-08-05T00:00:33.121Z,71.31
2017-08-05T00:01:33.101Z,71.22
2017-08-05T00:02:33.082Z,71.22
2017-08-05T00:03:33.059Z,71.31
2017-08-05T00:04:33.041Z,71.41
2017-08-05T00:05:32.728Z,71.51
2017-08-05T00:06:32.999Z,71.61
2017-08-05T00:07:32.680Z,71.89
2017-08-05T00:08:32.960Z,71.7
2017-08-05T00:09:32.936Z,71.51
2017-08-05T00:10:32.919Z,71.89
2017-08-05T00:11:32.895Z,72.14
2017-08-05T00:12:33.331Z,71.86
2017-08-05T00:13:32.856Z,71.95
2017-08-05T00:14:32.838Z,72.33
2017-08-05T00:15:32.815Z,72.43
2017-08-05T00:16:32.797Z,72.72
2017-08-05T00:17:32.774Z,72.63
2017-08-05T00:18:32.756Z,72.63
2017-08-05T00:19:32.734Z,72.72
2017-08-05T00:20:32.717Z,72.53
2017-08-05T00:21:32.695Z,72.33
2017-08-05T00:22:32.673Z,72.53
2017-08-05T00:23:32.664Z,72.72
2017-08-05T00:24:32.634Z,72.63
2017-08-05T00:25:32.613Z,72.24
2017-08-05T00:26:32.592Z,72.33
2017-08-05T00:27:32.572Z,72.53
2017-08-05T00:28:32.550Z,72.05
2017-08-05T00:29:32.531Z,72.05
2017-08-05T00:30:32.513Z,72.14
2017-08-05T00:31:32.490Z,72.18
2017-08-05T00:32:32.470Z,71.8
2017-08-05T00:33:32.448Z,71.47
2017-08-05T00:34:32.431Z,71.61
2017-08-05T00:35:32.417Z,71.7
2017-08-05T00:36:32.393Z,71.51
2017-08-05T00:37:32.370Z,71.7
2017-08-05T00:38:32.350Z,71.7
2017-08-05T00:39:32.332Z,71.7
2017-08-05T00:40:32.308Z,71.8
2017-08-05T00:41:32.286Z,71.7
2017-08-05T00:42:32.270Z,71.86
2017-08-05T00:43:32.248Z,71.76
2017-08-05T00:44:32.233Z,71.57
2017-08-05T00:45:32.207Z,71.47
2017-08-05T00:46:32.184Z,71.66
2017-08-05T00:47:32.165Z,71.86
2017-08-05T00:48:32.147Z,72.14
2017-08-05T00:49:32.127Z,72.14
2017-08-05T00:50:31.811Z,72.43
2017-08-05T00:51:32.086Z,72.72
2017-08-05T00:52:32.063Z,72.53
2017-08-05T00:53:32.044Z,72.43
2017-08-05T00:54:32.021Z,72.43
2017-08-05T00:55:32.002Z,72.33
2017-08-05T00:56:31.980Z,72.53
2017-08-05T00:57:31.966Z,72.63
2017-08-05T00:58:31.996Z,73
2017-08-05T00:59:31.920Z,72.53
2017-08-05T01:00:31.902Z,72.63
2017-08-05T01:01:31.882Z,72.72
2017-08-05T01:02:31.561Z,73.49
2017-08-05T01:03:31.540Z,73.16
2017-08-05T01:04:31.818Z,73.1
2017-08-05T01:05:31.799Z,72.97
2017-08-05T01:06:31.776Z,72.97
2017-08-05T01:07:31.758Z,73.16
2017-08-05T01:08:31.744Z,72.88
2017-08-05T01:09:31.713Z,73.16
2017-08-05T01:10:31.694Z,72.68
2017-08-05T01:11:31.673Z,73.1
2017-08-05T01:12:31.651Z,73.07
2017-08-05T01:13:31.629Z,73.39
2017-08-05T01:14:31.613Z,73.26
2017-08-05T01:15:31.591Z,72.78
2017-08-05T01:16:31.568Z,73.26
2017-08-05T01:17:31.550Z,73.16
2017-08-05T01:18:31.528Z,73.07
2017-08-05T01:19:31.509Z,73.26
2017-08-05T01:20:31.485Z,72.97
2017-08-05T01:21:31.465Z,73.07
2017-08-05T01:22:31.448Z,72.78
2017-08-05T01:23:31.425Z,73.35
2017-08-05T01:24:31.105Z,73.26
2017-08-05T01:25:31.396Z,73.35
2017-08-05T01:26:31.368Z,72.88
2017-08-05T01:27:31.341Z,72.88
2017-08-05T01:28:31.319Z,73.16
2017-08-05T01:29:31.298Z,73.26
2017-08-05T01:30:31.280Z,73.55
2017-08-05T01:31:31.258Z,73.35
2017-08-05T01:32:31.245Z,73.35
2017-08-05T01:33:31.216Z,73.55
2017-08-05T01:34:30.899Z,73.83
2017-08-05T01:35:30.877Z,73.65
2017-08-05T01:36:31.154Z,73.83
2017-08-05T01:37:30.834Z,73.9
2017-08-05T01:38:31.113Z,73.61
2017-08-05T01:39:31.092Z,73.8
2017-08-05T01:40:30.773Z,74.18
2017-08-05T01:41:30.751Z,74.08
2017-08-05T01:42:31.024Z,74.18
2017-08-05T01:43:31.012Z,74.18
2017-08-05T01:44:30.691Z,74.08
2017-08-05T01:45:30.666Z,74.27
2017-08-05T01:46:30.942Z,73.7
2017-08-05T01:47:30.925Z,73.99
2017-08-05T01:48:30.908Z,74.02
2017-08-05T01:49:30.878Z,73.93
2017-08-05T01:50:30.858Z,73.93
2017-08-05T01:51:30.837Z,73.65
2017-08-05T01:52:30.817Z,73.65
2017-08-05T01:53:30.795Z,73.93
2017-08-05T01:54:30.778Z,73.83
2017-08-05T01:55:30.758Z,73.74
2017-08-05T01:56:30.734Z,73.45
2017-08-05T01:57:30.713Z,73.55
2017-08-05T01:58:30.694Z,73.16
2017-08-05T01:59:30.673Z,73.55
2017-08-05T02:00:30.653Z,73.65
2017-08-05T02:01:30.627Z,73.45
2017-08-05T02:02:30.613Z,72.97
2017-08-05T02:03:30.587Z,73.07
2017-08-05T02:04:30.570Z,72.97
2017-08-05T02:05:30.546Z,73.16
2017-08-05T02:06:30.530Z,72.88
2017-08-05T02:07:30.507Z,73.07
2017-08-05T02:08:30.186Z,72.97
2017-08-05T02:09:30.468Z,73.1
2017-08-05T02:10:30.445Z,73.2
2017-08-05T02:11:30.423Z,73.2
2017-08-05T02:12:30.401Z,72.88
2017-08-05T02:13:30.383Z,72.72
2017-08-05T02:14:30.377Z,73
2017-08-05T02:15:30.340Z,73.2
2017-08-05T02:16:30.320Z,73.3
2017-08-05T02:17:30.302Z,72.63
2017-08-05T02:18:30.277Z,72.53
2017-08-05T02:19:30.257Z,72.81
2017-08-05T02:20:30.237Z,72.43
2017-08-05T02:21:30.219Z,72.43
2017-08-05T02:22:30.195Z,72.24
2017-08-05T02:23:30.177Z,72.14
2017-08-05T02:24:30.153Z,72.24
2017-08-05T02:25:30.136Z,72.33
2017-08-05T02:26:29.820Z,72.43
2017-08-05T02:27:29.797Z,72.63
2017-08-05T02:28:30.073Z,72.24
2017-08-05T02:29:30.055Z,72.33
2017-08-05T02:30:29.741Z,72.63
2017-08-05T02:31:29.717Z,72.24
2017-08-05T02:32:29.994Z,72.63
2017-08-05T02:33:29.677Z,73
2017-08-05T02:34:29.958Z,73.2
2017-08-05T02:35:29.931Z,73.3
2017-08-05T02:36:29.909Z,73
2017-08-05T02:37:29.892Z,73.3
2017-08-05T02:38:29.875Z,73
2017-08-05T02:39:29.850Z,73.49
2017-08-05T02:40:29.834Z,73.49
2017-08-05T02:41:29.807Z,73.3
2017-08-05T02:42:29.798Z,73.39
2017-08-05T02:43:29.769Z,73.87
2017-08-05T02:44:29.748Z,73.68
2017-08-05T02:45:29.733Z,73.68
2017-08-05T02:46:29.707Z,73.87
2017-08-05T02:47:29.683Z,73.83
2017-08-05T02:48:29.667Z,73.49
2017-08-05T02:49:29.648Z,73.2
2017-08-05T02:50:29.330Z,73.2
2017-08-05T02:51:29.612Z,72.91
2017-08-05T02:52:29.301Z,73.2
2017-08-05T02:53:29.563Z,73.3
2017-08-05T02:54:29.543Z,72.63
2017-08-05T02:55:29.524Z,72.53
2017-08-05T02:56:29.499Z,72.43
2017-08-05T02:57:29.482Z,72.53
2017-08-05T02:58:29.457Z,72.53
2017-08-05T02:59:29.441Z,72.43
2017-08-05T03:00:29.420Z,72.72
2017-08-05T03:01:29.396Z,72.81
2017-08-05T03:02:29.385Z,73.68
2017-08-05T03:03:29.358Z,73.68
2017-08-05T03:04:29.341Z,73.87
2017-08-05T03:05:29.316Z,74.41
2017-08-05T03:06:29.295Z,74.6
2017-08-05T03:07:29.276Z,74.79
2017-08-05T03:08:29.260Z,75.12
2017-08-05T03:09:29.233Z,75.27
2017-08-05T03:10:29.219Z,76.23
2017-08-05T03:11:29.196Z,76.32
2017-08-05T03:12:29.168Z,76.62
2017-08-05T03:13:29.157Z,77.58
2017-08-05T03:14:29.129Z,77.86
2017-08-05T03:15:29.108Z,79.11
2017-08-05T03:16:29.086Z,79.55
2017-08-05T03:17:29.065Z,79.64
2017-08-05T03:18:29.042Z,80.22
2017-08-05T03:19:29.021Z,80.51
2017-08-05T03:20:29.003Z,81.46
2017-08-05T03:21:28.978Z,81.81
2017-08-05T03:22:28.959Z,82.19
2017-08-05T03:23:28.945Z,82.38
2017-08-05T03:24:28.918Z,83.15
2017-08-05T03:25:28.891Z,83.44
2017-08-05T03:26:28.578Z,84.01
2017-08-05T03:27:28.854Z,84.01
2017-08-05T03:28:28.832Z,84.39
2017-08-05T03:29:28.811Z,84.88
2017-08-05T03:30:28.792Z,85.35
2017-08-05T03:31:28.767Z,85.93
2017-08-05T03:32:28.746Z,85.98
2017-08-05T03:33:28.723Z,86.55
2017-08-05T03:34:28.703Z,86.84
2017-08-05T03:35:28.679Z,87.32
2017-08-05T03:36:28.659Z,87.7
2017-08-05T03:37:28.636Z,87.9
2017-08-05T03:38:28.623Z,88.95
2017-08-05T03:39:28.591Z,89.81
2017-08-05T03:40:28.572Z,90.58
2017-08-05T03:41:28.549Z,92.11
2017-08-05T03:42:28.231Z,92.3
2017-08-05T03:43:28.506Z,92.87
2017-08-05T03:44:28.484Z,94.21
2017-08-05T03:45:28.461Z,94.74
2017-08-05T03:46:28.440Z,95.03
2017-08-05T03:47:28.420Z,95.89
2017-08-05T03:48:28.395Z,95.89
2017-08-05T03:49:28.374Z,96.27
2017-08-05T03:50:28.354Z,96.94
2017-08-05T03:51:28.334Z,97.71
2017-08-05T03:52:28.308Z,98.19
2017-08-05T03:53:28.284Z,98
2017-08-05T03:54:28.266Z,97.9
2017-08-05T03:55:28.241Z,98.86
2017-08-05T03:56:28.218Z,98.66
2017-08-05T03:57:28.201Z,99.15
2017-08-05T03:58:28.177Z,99.62
2017-08-05T03:59:28.150Z,99.99
2017-08-05T04:00:28.129Z,99.99
2017-08-05T04:01:28.110Z,99.99
2017-08-05T04:02:28.083Z,99.99
2017-08-05T04:03:28.070Z,99.99
2017-08-05T04:04:28.042Z,99.99
2017-08-05T04:05:28.018Z,99.99
2017-08-05T04:06:28.000Z,99.99
2017-08-05T04:07:27.980Z,99.99
2017-08-05T04:08:27.949Z,99.99
2017-08-05T04:09:27.928Z,99.99
2017-08-05T04:10:27.909Z,99.99
2017-08-05T04:11:27.882Z,99.99
2017-08-05T04:12:27.861Z,99.99
2017-08-05T04:13:27.844Z,99.99
2017-08-05T04:14:27.826Z,99.99
2017-08-05T04:15:27.798Z,99.99
2017-08-05T04:16:27.771Z,99.99
2017-08-05T04:17:27.753Z,99.99
2017-08-05T04:18:27.728Z,99.99
2017-08-05T04:19:27.706Z,99.99
2017-08-05T04:20:27.687Z,99.99
2017-08-05T04:21:27.664Z,99.99
2017-08-05T04:22:27.641Z,99.99
2017-08-05T04:23:27.619Z,99.99
2017-08-05T04:24:27.597Z,99.99
2017-08-05T04:25:27.278Z,99.99
2017-08-05T04:26:27.550Z,99.99
2017-08-05T04:27:27.527Z,99.99
2017-08-05T04:28:27.506Z,99.99
2017-08-05T04:29:27.483Z,99.99
2017-08-05T04:30:27.459Z,99.99
2017-08-05T04:31:27.437Z,99.99
2017-08-05T04:32:27.416Z,99.99
2017-08-05T04:33:27.397Z,99.99
2017-08-05T04:34:27.372Z,99.99
2017-08-05T04:35:27.353Z,99.99
2017-08-05T04:36:27.334Z,99.99
2017-08-05T04:37:27.307Z,99.99
2017-08-05T04:38:27.285Z,99.99
2017-08-05T04:39:27.265Z,99.99
2017-08-05T04:40:27.243Z,99.99
2017-08-05T04:41:27.224Z,99.99
2017-08-05T04:42:27.198Z,99.99
2017-08-05T04:43:27.179Z,99.99
2017-08-05T04:44:27.155Z,99.99
2017-08-05T04:45:27.129Z,99.99
2017-08-05T04:46:27.106Z,99.99
2017-08-05T04:47:27.087Z,99.99
2017-08-05T04:48:27.064Z,99.99
2017-08-05T04:49:26.745Z,99.99
2017-08-05T04:50:27.020Z,99.99
2017-08-05T04:51:27.001Z,99.99
2017-08-05T04:52:26.977Z,99.99
2017-08-05T04:53:26.953Z,99.99
2017-08-05T04:54:26.934Z,99.99
2017-08-05T04:55:26.911Z,99.99
2017-08-05T04:56:26.889Z,99.99
2017-08-05T04:57:26.919Z,99.99
2017-08-05T04:58:26.854Z,99.99
2017-08-05T04:59:26.824Z,99.99
2017-08-05T05:00:26.799Z,99.99
2017-08-05T05:01:26.779Z,99.99
2017-08-05T05:02:26.772Z,99.99
2017-08-05T05:03:26.737Z,99.99
2017-08-05T05:04:26.717Z,99.99
2017-08-05T05:05:26.690Z,99.99
2017-08-05T05:06:26.667Z,99.99
2017-08-05T05:07:26.648Z,99.99
2017-08-05T05:08:26.628Z,99.99
2017-08-05T05:09:26.606Z,99.99
2017-08-05T05:10:26.583Z,99.99
2017-08-05T05:11:26.560Z,99.99
2017-08-05T05:12:26.541Z,99.99
2017-08-05T05:13:26.519Z,99.99
2017-08-05T05:14:26.497Z,99.99
2017-08-05T05:15:26.475Z,99.99
2017-08-05T05:16:26.454Z,99.99
2017-08-05T05:17:26.430Z,99.99
2017-08-05T05:18:26.410Z,99.99
2017-08-05T05:19:26.386Z,99.99
2017-08-05T05:20:26.366Z,99.99
2017-08-05T05:21:26.346Z,99.99
2017-08-05T05:22:26.322Z,99.99
2017-08-05T05:23:26.300Z,99.99
2017-08-05T05:24:26.280Z,99.99
2017-08-05T05:25:26.253Z,99.99
2017-08-05T05:26:26.236Z,99.99
2017-08-05T05:27:26.213Z,99.99
2017-08-05T05:28:26.190Z,99.99
2017-08-05T05:29:26.166Z,99.99
2017-08-05T05:30:26.150Z,99.99
2017-08-05T05:31:26.125Z,99.99
2017-08-05T05:32:26.102Z,99.99
2017-08-05T05:33:26.082Z,99.99
2017-08-05T05:34:26.059Z,99.99
2017-08-05T05:35:26.037Z,99.99
2017-08-05T05:36:26.017Z,99.99
2017-08-05T05:37:25.993Z,99.99
2017-08-05T05:38:25.978Z,99.99
2017-08-05T05:39:25.956Z,99.99
2017-08-05T05:40:25.929Z,99.99
2017-08-05T05:41:25.906Z,99.99
2017-08-05T05:42:25.887Z,99.99
2017-08-05T05:43:25.869Z,99.99
2017-08-05T05:44:25.844Z,99.99
2017-08-05T05:45:25.823Z,99.99
2017-08-05T05:46:25.800Z,99.99
2017-08-05T05:47:25.780Z,99.99
2017-08-05T05:48:25.758Z,99.99
2017-08-05T05:49:25.734Z,99.99
2017-08-05T05:50:25.711Z,99.99
2017-08-05T05:51:25.695Z,99.99
2017-08-05T05:52:25.677Z,99.99
2017-08-05T05:53:25.646Z,99.99
2017-08-05T05:54:25.632Z,99.99
2017-08-05T05:55:25.604Z,99.99
2017-08-05T05:56:25.583Z,99.99
2017-08-05T05:57:25.562Z,99.99
2017-08-05T05:58:25.542Z,99.99
2017-08-05T05:59:25.521Z,99.99
2017-08-05T06:00:25.506Z,99.99
2017-08-05T06:01:25.477Z,99.99
2017-08-05T06:02:25.459Z,99.99
2017-08-05T06:03:25.434Z,99.99
2017-08-05T06:04:25.411Z,99.99
2017-08-05T06:05:25.390Z,99.99
2017-08-05T06:06:25.364Z,99.99
2017-08-05T06:07:25.048Z,99.99
2017-08-05T06:08:25.027Z,99.99
2017-08-05T06:09:25.301Z,99.99
2017-08-05T06:10:24.984Z,99.99
2017-08-05T06:11:24.966Z,99.99
2017-08-05T06:12:24.941Z,99.99
2017-08-05T06:13:24.922Z,99.99
2017-08-05T06:14:24.897Z,99.99
2017-08-05T06:15:25.180Z,99.99
2017-08-05T06:16:25.150Z,99.99
2017-08-05T06:17:25.129Z,99.99
2017-08-05T06:18:25.107Z,99.99
2017-08-05T06:19:25.087Z,99.99
2017-08-05T06:20:25.064Z,99.99
2017-08-05T06:21:25.048Z,99.99
2017-08-05T06:22:25.022Z,99.99
2017-08-05T06:23:25.005Z,99.99
2017-08-05T06:24:24.980Z,99.99
2017-08-05T06:25:24.961Z,99.99
2017-08-05T06:26:24.938Z,99.99
2017-08-05T06:27:24.916Z,99.99
2017-08-05T06:28:24.894Z,99.99
2017-08-05T06:29:24.872Z,99.99
2017-08-05T06:30:24.852Z,99.99
2017-08-05T06:31:24.831Z,99.99
2017-08-05T06:32:24.809Z,99.99
2017-08-05T06:33:24.491Z,99.99
2017-08-05T06:34:24.770Z,99.99
2017-08-05T06:35:24.746Z,99.99
2017-08-05T06:36:24.725Z,99.99
2017-08-05T06:37:24.730Z,99.99
2017-08-05T06:38:24.678Z,99.99
2017-08-05T06:39:24.660Z,99.99
2017-08-05T06:40:24.636Z,99.99
2017-08-05T06:41:24.614Z,99.99
2017-08-05T06:42:24.597Z,99.99
2017-08-05T06:43:24.279Z,99.99
2017-08-05T06:44:24.552Z,99.99
2017-08-05T06:45:24.529Z,99.99
2017-08-05T06:46:24.505Z,99.99
2017-08-05T06:47:24.489Z,99.99
2017-08-05T06:48:24.463Z,99.99
2017-08-05T06:49:24.440Z,99.99
2017-08-05T06:50:24.423Z,99.99
2017-08-05T06:51:24.400Z,99.99
2017-08-05T06:52:24.380Z,99.99
2017-08-05T06:53:24.060Z,99.99
2017-08-05T06:54:24.337Z,99.99
2017-08-05T06:55:24.318Z,99.99
2017-08-05T06:56:24.294Z,99.99
2017-08-05T06:57:24.267Z,99.99
2017-08-05T06:58:23.968Z,99.99
2017-08-05T06:59:24.225Z,99.99
2017-08-05T07:00:23.907Z,99.99
2017-08-05T07:01:24.186Z,99.99
2017-08-05T07:02:24.162Z,99.99
2017-08-05T07:03:24.140Z,99.99
2017-08-05T07:04:24.117Z,99.99
2017-08-05T07:05:24.098Z,99.99
2017-08-05T07:06:24.076Z,99.99
2017-08-05T07:07:24.055Z,99.99
2017-08-05T07:08:24.033Z,99.99
2017-08-05T07:09:24.011Z,99.99
2017-08-05T07:10:23.987Z,99.99
2017-08-05T07:11:23.669Z,99.99
2017-08-05T07:12:23.947Z,99.99
2017-08-05T07:13:23.925Z,99.99
2017-08-05T07:14:23.904Z,99.99
2017-08-05T07:15:23.879Z,99.99
2017-08-05T07:16:23.909Z,99.99
2017-08-05T07:17:23.836Z,99.99
2017-08-05T07:18:23.816Z,99.99
2017-08-05T07:19:23.796Z,99.99
2017-08-05T07:20:23.774Z,99.99
2017-08-05T07:21:23.750Z,99.99
2017-08-05T07:22:23.731Z,99.99
2017-08-05T07:23:23.707Z,99.99
2017-08-05T07:24:23.689Z,99.99
2017-08-05T07:25:23.663Z,99.99
2017-08-05T07:26:23.344Z,99.99
2017-08-05T07:27:23.621Z,99.99
2017-08-05T07:28:23.598Z,99.99
2017-08-05T07:29:23.576Z,99.99
2017-08-05T07:30:23.556Z,99.99
2017-08-05T07:31:23.533Z,99.99
2017-08-05T07:32:23.510Z,99.99
2017-08-05T07:33:23.493Z,99.99
2017-08-05T07:34:23.468Z,99.99
2017-08-05T07:35:23.448Z,99.99
2017-08-05T07:36:23.428Z,99.99
2017-08-05T07:37:23.405Z,99.99
2017-08-05T07:38:23.384Z,99.99
2017-08-05T07:39:23.361Z,99.99
2017-08-05T07:40:23.046Z,99.99
2017-08-05T07:41:23.322Z,99.99
2017-08-05T07:42:23.298Z,99.99
2017-08-05T07:43:23.277Z,99.99
2017-08-05T07:44:23.254Z,99.99
2017-08-05T07:45:23.236Z,99.99
2017-08-05T07:46:23.217Z,99.99
2017-08-05T07:47:23.189Z,99.99
2017-08-05T07:48:23.171Z,99.99
2017-08-05T07:49:23.146Z,99.99
2017-08-05T07:50:23.125Z,99.99
2017-08-05T07:51:23.103Z,99.99
2017-08-05T07:52:23.080Z,99.99
2017-08-05T07:53:23.062Z,99.99
2017-08-05T07:54:23.038Z,99.99
2017-08-05T07:55:23.020Z,99.99
2017-08-05T07:56:22.996Z,99.99
2017-08-05T07:57:22.984Z,99.99
2017-08-05T07:58:22.655Z,99.99
2017-08-05T07:59:22.935Z,99.99
2017-08-05T08:00:22.910Z,99.99
2017-08-05T08:01:22.593Z,99.99
2017-08-05T08:02:22.866Z,99.99
2017-08-05T08:03:22.847Z,99.99
2017-08-05T08:04:22.823Z,99.99
2017-08-05T08:05:22.802Z,99.99
2017-08-05T08:06:22.778Z,99.99
2017-08-05T08:07:22.762Z,99.99
2017-08-05T08:08:22.444Z,99.99
2017-08-05T08:09:22.727Z,99.99
2017-08-05T08:10:22.722Z,99.99
2017-08-05T08:11:22.698Z,99.99
2017-08-05T08:12:22.358Z,99.99
2017-08-05T08:13:22.632Z,99.99
2017-08-05T08:14:22.613Z,99.99
2017-08-05T08:15:22.598Z,99.99
2017-08-05T08:16:22.576Z,99.99
2017-08-05T08:17:22.547Z,99.99
2017-08-05T08:18:22.529Z,99.99
2017-08-05T08:19:22.504Z,99.99
2017-08-05T08:20:22.482Z,99.99
2017-08-05T08:21:22.461Z,99.99
2017-08-05T08:22:22.443Z,99.99
2017-08-05T08:23:22.420Z,99.99
2017-08-05T08:24:22.400Z,99.99
2017-08-05T08:25:22.376Z,99.99
2017-08-05T08:26:22.358Z,99.99
2017-08-05T08:27:22.334Z,99.99
2017-08-05T08:28:22.315Z,99.99
2017-08-05T08:29:22.293Z,99.99
2017-08-05T08:30:22.275Z,99.99
2017-08-05T08:31:22.256Z,99.99
2017-08-05T08:32:22.232Z,99.99
2017-08-05T08:33:21.916Z,99.99
2017-08-05T08:34:22.189Z,99.99
2017-08-05T08:35:22.171Z,99.99
2017-08-05T08:36:22.152Z,99.99
2017-08-05T08:37:22.130Z,99.99
2017-08-05T08:38:22.109Z,99.99
2017-08-05T08:39:22.088Z,99.99
2017-08-05T08:40:22.066Z,99.99
2017-08-05T08:41:22.048Z,99.99
2017-08-05T08:42:22.029Z,99.99
2017-08-05T08:43:22.029Z,99.99
2017-08-05T08:44:21.987Z,99.99
2017-08-05T08:45:21.966Z,99.99
2017-08-05T08:46:21.951Z,99.99
2017-08-05T08:47:21.924Z,99.99
2017-08-05T08:48:21.903Z,99.99
2017-08-05T08:49:21.884Z,99.99
2017-08-05T08:50:21.864Z,99.99
2017-08-05T08:51:21.843Z,99.99
2017-08-05T08:52:21.823Z,99.99
2017-08-05T08:53:21.805Z,99.99
2017-08-05T08:54:21.783Z,99.99
2017-08-05T08:55:21.765Z,99.99
2017-08-05T08:56:21.747Z,99.99
2017-08-05T08:57:21.724Z,99.99
2017-08-05T08:58:21.707Z,99.99
2017-08-05T08:59:21.686Z,99.99
2017-08-05T09:00:21.666Z,99.99
2017-08-05T09:01:21.647Z,99.99
2017-08-05T09:02:21.629Z,99.99
2017-08-05T09:03:21.609Z,99.99
2017-08-05T09:04:21.587Z,99.99
2017-08-05T09:05:21.569Z,99.99
2017-08-05T09:06:21.555Z,99.99
2017-08-05T09:07:21.532Z,99.99
2017-08-05T09:08:21.521Z,99.99
2017-08-05T09:09:21.492Z,99.99
2017-08-05T09:10:21.480Z,99.99
2017-08-05T09:11:21.455Z,99.99
2017-08-05T09:12:21.436Z,99.99
2017-08-05T09:13:21.419Z,99.99
2017-08-05T09:14:21.397Z,99.99
2017-08-05T09:15:21.438Z,99.99
2017-08-05T09:16:21.361Z,99.99
2017-08-05T09:17:21.343Z,99.99
2017-08-05T09:18:21.331Z,99.99
2017-08-05T09:19:21.302Z,99.99
2017-08-05T09:20:21.287Z,99.99
2017-08-05T09:21:21.267Z,99.99
2017-08-05T09:22:21.251Z,99.99
2017-08-05T09:23:21.228Z,99.99
2017-08-05T09:24:21.213Z,99.99
2017-08-05T09:25:21.193Z,99.99
2017-08-05T09:26:21.180Z,99.99
2017-08-05T09:27:21.156Z,99.99
2017-08-05T09:28:21.139Z,99.99
2017-08-05T09:29:20.822Z,99.99
2017-08-05T09:30:21.105Z,99.99
2017-08-05T09:31:20.788Z,99.99
2017-08-05T09:32:21.067Z,99.99
2017-08-05T09:33:21.056Z,99.99
2017-08-05T09:34:21.026Z,99.99
2017-08-05T09:35:20.715Z,99.99
2017-08-05T09:36:20.994Z,99.99
2017-08-05T09:37:20.974Z,99.99
2017-08-05T09:38:20.967Z,99.99
2017-08-05T09:39:20.940Z,99.99
2017-08-05T09:40:20.919Z,99.99
2017-08-05T09:41:20.901Z,99.99
2017-08-05T09:42:20.886Z,99.99
2017-08-05T09:43:20.866Z,99.99
2017-08-05T09:44:20.846Z,99.99
2017-08-05T09:45:20.532Z,99.99
2017-08-05T09:46:20.814Z,99.99
2017-08-05T09:47:20.791Z,99.99
2017-08-05T09:48:20.478Z,99.99
2017-08-05T09:49:20.460Z,99.99
2017-08-05T09:50:20.445Z,99.99
2017-08-05T09:51:20.422Z,99.99
2017-08-05T09:52:20.701Z,99.99
2017-08-05T09:53:20.389Z,99.99
2017-08-05T09:54:20.369Z,99.99
2017-08-05T09:55:20.645Z,99.99
2017-08-05T09:56:20.629Z,99.99
2017-08-05T09:57:20.613Z,99.99
2017-08-05T09:58:20.592Z,99.99
2017-08-05T09:59:20.575Z,99.99
2017-08-05T10:00:20.554Z,99.99
2017-08-05T10:01:20.536Z,99.99
2017-08-05T10:02:20.518Z,99.99
2017-08-05T10:03:20.498Z,99.99
2017-08-05T10:04:20.482Z,99.99
2017-08-05T10:05:20.462Z,99.99
2017-08-05T10:06:20.162Z,99.99
2017-08-05T10:07:20.421Z,99.99
2017-08-05T10:08:20.403Z,99.99
2017-08-05T10:09:20.386Z,99.99
2017-08-05T10:10:20.366Z,99.99
2017-08-05T10:11:21.351Z,99.99
2017-08-05T10:12:20.331Z,99.99
2017-08-05T10:13:20.315Z,99.99
2017-08-05T10:14:20.294Z,99.99
2017-08-05T10:15:20.272Z,99.99
2017-08-05T10:16:20.257Z,99.99
2017-08-05T10:17:20.237Z,99.99
2017-08-05T10:18:20.216Z,99.99
2017-08-05T10:19:20.198Z,99.99
2017-08-05T10:20:20.174Z,99.99
2017-08-05T10:21:20.155Z,99.99
2017-08-05T10:22:20.139Z,99.99
2017-08-05T10:23:20.167Z,99.99
2017-08-05T10:24:20.098Z,99.99
2017-08-05T10:25:20.081Z,99.99
2017-08-05T10:26:20.062Z,99.99
2017-08-05T10:27:20.044Z,99.99
2017-08-05T10:28:20.024Z,99.99
2017-08-05T10:29:19.708Z,99.99
2017-08-05T10:30:19.984Z,99.99
2017-08-05T10:31:19.667Z,99.99
2017-08-05T10:32:19.943Z,99.99
2017-08-05T10:33:19.925Z,99.99
2017-08-05T10:34:19.902Z,99.99
2017-08-05T10:35:20.152Z,99.99
2017-08-05T10:36:19.564Z,99.99
2017-08-05T10:37:19.841Z,99.99
2017-08-05T10:38:19.823Z,99.99
2017-08-05T10:39:19.800Z,99.99
2017-08-05T10:40:19.782Z,99.99
2017-08-05T10:41:19.465Z,99.99
2017-08-05T10:42:19.741Z,99.99
2017-08-05T10:43:19.718Z,99.99
2017-08-05T10:44:19.705Z,99.99
2017-08-05T10:45:19.680Z,99.99
2017-08-05T10:46:19.663Z,99.99
2017-08-05T10:47:19.645Z,99.99
2017-08-05T10:48:19.672Z,99.99
2017-08-05T10:49:19.600Z,99.99
2017-08-05T10:50:19.581Z,99.99
2017-08-05T10:51:19.557Z,99.99
2017-08-05T10:52:19.541Z,99.99
2017-08-05T10:53:19.516Z,99.99
2017-08-05T10:54:19.496Z,99.99
2017-08-05T10:55:19.483Z,99.99
2017-08-05T10:56:19.460Z,99.99
2017-08-05T10:57:19.437Z,99.99
2017-08-05T10:58:19.122Z,99.99
2017-08-05T10:59:19.401Z,99.99
2017-08-05T11:00:19.378Z,99.99
2017-08-05T11:01:19.359Z,99.99
2017-08-05T11:02:19.337Z,99.99
2017-08-05T11:03:19.315Z,99.99
2017-08-05T11:04:19.295Z,99.99
2017-08-05T11:05:19.278Z,99.99
2017-08-05T11:06:19.260Z,99.99
2017-08-05T11:07:19.240Z,99.99
2017-08-05T11:08:19.222Z,99.99
2017-08-05T11:09:19.249Z,99.99
2017-08-05T11:10:19.179Z,99.99
2017-08-05T11:11:19.158Z,99.99
2017-08-05T11:12:19.347Z,99.99
2017-08-05T11:13:19.121Z,99.99
2017-08-05T11:14:19.100Z,99.99
2017-08-05T11:15:19.079Z,99.99
2017-08-05T11:16:19.059Z,99.99
2017-08-05T11:17:19.043Z,99.99
2017-08-05T11:18:19.023Z,99.99
2017-08-05T11:19:18.705Z,99.99
2017-08-05T11:20:18.985Z,99.99
2017-08-05T11:21:18.966Z,99.99
2017-08-05T11:22:18.947Z,99.99
2017-08-05T11:23:18.930Z,99.99
2017-08-05T11:24:18.909Z,99.99
2017-08-05T11:25:18.892Z,99.99
2017-08-05T11:26:18.872Z,99.99
2017-08-05T11:27:18.856Z,99.99
2017-08-05T11:28:18.841Z,99.99
2017-08-05T11:29:18.522Z,99.99
2017-08-05T11:30:18.801Z,99.99
2017-08-05T11:31:18.484Z,99.99
2017-08-05T11:32:18.763Z,99.99
2017-08-05T11:33:18.753Z,99.99
2017-08-05T11:34:18.724Z,99.99
2017-08-05T11:35:18.709Z,99.99
2017-08-05T11:36:18.692Z,99.99
2017-08-05T11:37:18.671Z,99.99
2017-08-05T11:38:18.655Z,99.99
2017-08-05T11:39:18.636Z,99.99
2017-08-05T11:40:18.621Z,99.99
2017-08-05T11:41:18.603Z,99.99
2017-08-05T11:42:18.586Z,99.99
2017-08-05T11:43:18.566Z,99.99
2017-08-05T11:44:18.550Z,99.99
2017-08-05T11:45:18.236Z,99.99
2017-08-05T11:46:18.515Z,99.99
2017-08-05T11:47:18.466Z,99.99
2017-08-05T11:48:18.478Z,99.99
2017-08-05T11:49:18.461Z,99.99
2017-08-05T11:50:18.442Z,99.99
2017-08-05T11:51:18.424Z,99.99
2017-08-05T11:52:18.408Z,99.99
2017-08-05T11:53:18.388Z,99.99
2017-08-05T11:54:18.076Z,99.99
2017-08-05T11:55:18.352Z,99.99
2017-08-05T11:56:18.337Z,99.99
2017-08-05T11:57:18.320Z,99.99
2017-08-05T11:58:18.305Z,99.99
2017-08-05T11:59:18.286Z,99.99
2017-08-05T12:00:18.265Z,99.99
2017-08-05T12:01:18.250Z,99.99
2017-08-05T12:02:18.234Z,99.99
2017-08-05T12:03:17.919Z,99.99
2017-08-05T12:04:18.196Z,99.99
2017-08-05T12:05:18.177Z,99.99
2017-08-05T12:06:18.163Z,99.99
2017-08-05T12:07:18.146Z,99.99
2017-08-05T12:08:18.130Z,99.99
2017-08-05T12:09:18.113Z,99.99
2017-08-05T12:10:18.091Z,99.99
2017-08-05T12:11:18.077Z,99.99
2017-08-05T12:12:18.057Z,99.99
2017-08-05T12:13:18.038Z,99.99
2017-08-05T12:14:18.023Z,99.99
2017-08-05T12:15:18.001Z,99.99
2017-08-05T12:16:17.988Z,99.99
2017-08-05T12:17:17.966Z,99.99
2017-08-05T12:18:17.949Z,99.99
2017-08-05T12:19:17.931Z,99.99
2017-08-05T12:20:17.918Z,99.99
2017-08-05T12:21:17.901Z,99.99
2017-08-05T12:22:17.582Z,99.99
2017-08-05T12:23:17.562Z,99.99
2017-08-05T12:24:17.840Z,99.99
2017-08-05T12:25:17.819Z,99.99
2017-08-05T12:26:17.803Z,99.99
2017-08-05T12:27:17.783Z,99.99
2017-08-05T12:28:17.765Z,99.99
2017-08-05T12:29:17.745Z,99.99
2017-08-05T12:30:17.740Z,99.99
2017-08-05T12:31:17.714Z,99.99
2017-08-05T12:32:17.688Z,99.99
2017-08-05T12:33:17.669Z,99.99
2017-08-05T12:34:17.653Z,99.99
2017-08-05T12:35:17.631Z,99.99
2017-08-05T12:36:17.615Z,99.99
2017-08-05T12:37:17.594Z,99.99
2017-08-05T12:38:17.576Z,99.99
2017-08-05T12:39:17.553Z,99.99
2017-08-05T12:40:17.534Z,99.99
2017-08-05T12:41:17.517Z,99.99
2017-08-05T12:42:17.498Z,99.99
2017-08-05T12:43:17.477Z,99.99
2017-08-05T12:44:17.459Z,99.99
2017-08-05T12:45:17.443Z,99.99
2017-08-05T12:46:17.130Z,99.99
2017-08-05T12:47:17.106Z,99.99
2017-08-05T12:48:17.381Z,99.99
2017-08-05T12:49:17.368Z,99.99
2017-08-05T12:50:17.349Z,99.99
2017-08-05T12:51:17.086Z,99.99
2017-08-05T12:52:17.314Z,99.99
2017-08-05T12:53:17.302Z,99.99
2017-08-05T12:54:17.280Z,99.99